createdAt,value
2018-09-21T00:01:22.530Z,4.50
2018-09-21T00:06:25.839Z,4.72
2018-09-21T00:11:29.221Z,4.58
2018-09-21T00:16:32.576Z,4.40
2018-09-21T00:21:35.880Z,4.62
2018-09-21T00:26:39.216Z,4.80
2018-09-21T00:31:42.500Z,4.28
2018-09-21T00:36:46.016Z,4.87
2018-09-21T00:41:49.405Z,4.28
2018-09-21T00:46:52.772Z,4.62
2018-09-21T00:51:56.064Z,4.83
2018-09-21T00:56:59.395Z,5.05
2018-09-21T01:02:02.725Z,4.42
2018-09-21T01:07:06.039Z,4.78
2018-09-21T01:12:09.365Z,4.35
2018-09-21T01:17:12.707Z,4.30
2018-09-21T01:22:16.074Z,4.80
2018-09-21T01:27:19.350Z,4.60
2018-09-21T01:32:22.716Z,4.67
2018-09-21T01:37:26.004Z,5.00
2018-09-21T01:42:29.308Z,4.53
2018-09-21T01:47:32.742Z,4.12
2018-09-21T01:52:36.077Z,4.45
2018-09-21T01:57:39.372Z,4.47
2018-09-21T02:02:42.727Z,4.65
2018-09-21T02:07:46.058Z,5.15
2018-09-21T02:12:49.371Z,4.47
2018-09-21T02:17:52.706Z,8.85
2018-09-21T02:22:56.052Z,3.98
2018-09-21T02:27:59.327Z,4.60
2018-09-21T02:33:02.658Z,4.62
2018-09-21T02:38:06.115Z,4.87
2018-09-21T02:43:09.466Z,4.67
2018-09-21T02:48:12.821Z,4.70
2018-09-21T02:53:16.206Z,4.15
2018-09-21T02:58:19.524Z,4.12
2018-09-21T03:03:22.855Z,3.98
2018-09-21T03:08:26.183Z,4.22
2018-09-21T03:13:29.581Z,4.60
2018-09-21T03:18:32.912Z,4.00
2018-09-21T03:23:36.233Z,4.85
2018-09-21T03:28:39.559Z,4.20
2018-09-21T03:33:42.871Z,4.20
2018-09-21T03:38:46.251Z,4.75
2018-09-21T03:43:49.637Z,4.00
2018-09-21T03:48:52.956Z,4.58
2018-09-21T03:53:56.419Z,4.25
2018-09-21T03:58:59.754Z,4.37
2018-09-21T04:04:03.172Z,4.03
2018-09-21T04:09:08.697Z,3.85
2018-09-21T04:14:11.983Z,4.12
2018-09-21T04:19:15.282Z,4.10
2018-09-21T04:24:18.613Z,4.20
2018-09-21T04:29:21.901Z,4.30
2018-09-21T04:34:25.224Z,4.10
2018-09-21T04:39:28.646Z,3.90
2018-09-21T04:44:31.930Z,3.87
2018-09-21T04:49:35.225Z,4.10
2018-09-21T04:54:38.548Z,4.35
2018-09-21T04:59:41.890Z,3.92
2018-09-21T05:04:45.228Z,3.92
2018-09-21T05:09:48.535Z,4.55
2018-09-21T05:14:51.926Z,3.87
2018-09-21T05:19:56.149Z,3.70
2018-09-21T05:24:59.424Z,3.95
2018-09-21T05:30:02.850Z,4.10
2018-09-21T05:35:06.714Z,3.90
2018-09-21T05:40:10.022Z,3.58
2018-09-21T05:45:13.400Z,4.55
2018-09-21T05:50:16.879Z,4.60
2018-09-21T05:55:20.225Z,4.13
2018-09-21T06:00:23.586Z,3.93
2018-09-21T06:05:26.915Z,3.73
2018-09-21T06:10:30.244Z,3.95
2018-09-21T06:15:33.606Z,4.05
2018-09-21T06:20:36.883Z,4.35
2018-09-21T06:25:40.164Z,4.08
2018-09-21T06:30:43.447Z,3.83
2018-09-21T06:35:46.759Z,4.28
2018-09-21T06:40:50.055Z,4.22
2018-09-21T06:45:53.331Z,3.52
2018-09-21T06:50:56.627Z,3.40
2018-09-21T06:55:59.932Z,4.25
2018-09-21T07:01:03.218Z,3.95
2018-09-21T07:06:06.499Z,4.03
2018-09-21T07:11:09.795Z,3.72
2018-09-21T07:16:13.086Z,3.33
2018-09-21T07:21:16.419Z,3.55
2018-09-21T07:26:19.702Z,3.33
2018-09-21T07:31:23.097Z,3.83
2018-09-21T07:36:26.646Z,3.83
2018-09-21T07:41:29.936Z,3.60
2018-09-21T07:46:33.239Z,3.50
2018-09-21T07:51:36.519Z,3.80
2018-09-21T07:56:39.846Z,3.50
2018-09-21T08:01:43.171Z,3.70
2018-09-21T08:06:46.531Z,3.50
2018-09-21T08:11:49.874Z,3.08
2018-09-21T08:16:53.191Z,3.60
2018-09-21T08:21:56.535Z,3.17
2018-09-21T08:26:59.863Z,3.95
2018-09-21T08:32:03.199Z,3.62
2018-09-21T08:37:06.895Z,3.40
2018-09-21T08:42:10.166Z,3.42
2018-09-21T08:47:13.480Z,3.75
2018-09-21T08:52:16.830Z,3.30
2018-09-21T08:57:20.368Z,3.60
2018-09-21T09:02:24.286Z,3.27
2018-09-21T09:07:27.676Z,3.95
2018-09-21T09:12:30.990Z,3.47
2018-09-21T09:17:34.297Z,3.55
2018-09-21T09:22:37.596Z,3.80
2018-09-21T09:27:40.911Z,3.23
2018-09-21T09:32:44.210Z,3.20
2018-09-21T09:37:47.533Z,3.55
2018-09-21T09:42:53.022Z,3.62
2018-09-21T09:47:56.401Z,3.47
2018-09-21T09:52:59.719Z,3.62
2018-09-21T09:58:03.024Z,3.83
2018-09-21T10:03:06.334Z,3.58
2018-09-21T10:08:10.085Z,3.72
2018-09-21T10:13:13.418Z,4.10
2018-09-21T10:18:16.763Z,3.77
2018-09-21T10:23:20.102Z,3.60
2018-09-21T10:28:23.590Z,4.17
2018-09-21T10:33:26.796Z,3.60
2018-09-21T10:38:30.115Z,3.62
2018-09-21T10:43:33.471Z,3.30
2018-09-21T10:48:36.795Z,2.70
2018-09-21T10:53:40.143Z,3.17
2018-09-21T10:58:43.554Z,3.22
2018-09-21T11:03:46.934Z,2.85
2018-09-21T11:08:51.440Z,3.17
2018-09-21T11:13:54.799Z,3.20
2018-09-21T11:18:58.371Z,2.98
2018-09-21T11:24:01.741Z,2.80
2018-09-21T11:29:05.143Z,3.05
2018-09-21T11:34:08.506Z,3.50
2018-09-21T11:39:12.400Z,3.17
2018-09-21T11:44:15.723Z,3.20
2018-09-21T11:49:19.056Z,3.50
2018-09-21T11:54:22.434Z,3.25
2018-09-21T11:59:25.768Z,4.03
2018-09-21T12:04:40.630Z,3.75
2018-09-21T12:09:44.028Z,3.80
2018-09-21T12:14:47.354Z,3.67
2018-09-21T12:19:50.748Z,3.70
2018-09-21T12:24:54.109Z,3.65
2018-09-21T12:29:57.575Z,4.15
2018-09-21T12:35:00.953Z,3.62
2018-09-21T12:40:04.542Z,3.80
2018-09-21T12:45:08.017Z,3.10
2018-09-21T12:50:11.408Z,3.90
2018-09-21T12:55:15.040Z,3.77
2018-09-21T13:00:18.451Z,3.80
2018-09-21T13:05:21.803Z,3.90
2018-09-21T13:10:25.190Z,3.70
2018-09-21T13:15:28.730Z,3.90
2018-09-21T13:20:32.869Z,3.70
2018-09-21T13:25:36.234Z,3.75
2018-09-21T13:30:39.553Z,3.70
2018-09-21T13:35:42.911Z,3.20
2018-09-21T13:40:46.340Z,3.45
2018-09-21T13:45:49.675Z,3.67
2018-09-21T13:50:53.006Z,3.72
2018-09-21T13:55:56.390Z,3.95
2018-09-21T14:00:59.715Z,3.50
2018-09-21T14:06:03.989Z,3.20
2018-09-21T14:11:07.319Z,3.50
2018-09-21T14:16:10.659Z,3.67
2018-09-21T14:21:14.306Z,3.27
2018-09-21T14:26:17.670Z,3.10
2018-09-21T14:31:20.987Z,2.37
2018-09-21T14:36:24.349Z,2.52
2018-09-21T14:41:27.707Z,2.50
2018-09-21T14:46:31.074Z,2.80
2018-09-21T14:51:35.019Z,2.37
2018-09-21T14:56:38.856Z,2.70
2018-09-21T15:01:42.254Z,2.45
2018-09-21T15:06:45.583Z,2.40
2018-09-21T15:11:49.048Z,2.33
2018-09-21T15:16:52.397Z,2.60
2018-09-21T15:21:55.747Z,2.72
2018-09-21T15:26:59.054Z,2.60
2018-09-21T15:32:02.488Z,1.80
2018-09-21T15:37:05.889Z,2.50
2018-09-21T15:42:09.246Z,1.77
2018-09-21T15:47:12.605Z,1.35
2018-09-21T15:52:16.039Z,1.32
2018-09-21T15:57:19.447Z,0.90
2018-09-21T16:02:22.791Z,0.90
2018-09-21T16:07:26.207Z,0.88
2018-09-21T16:12:29.563Z,0.98
2018-09-21T16:17:33.000Z,1.02
2018-09-21T16:22:36.347Z,1.00
2018-09-21T16:27:39.689Z,0.70
2018-09-21T16:32:43.031Z,0.75
2018-09-21T16:37:46.397Z,0.88
2018-09-21T16:42:49.747Z,0.70
2018-09-21T16:47:53.075Z,0.80
2018-09-21T16:52:56.439Z,0.72
2018-09-21T16:57:59.773Z,0.95
2018-09-21T17:03:03.171Z,0.85
2018-09-21T17:08:06.531Z,1.00
2018-09-21T17:13:09.850Z,1.25
2018-09-21T17:18:13.236Z,0.93
2018-09-21T17:23:17.057Z,1.50
2018-09-21T17:28:20.462Z,1.20
2018-09-21T17:33:24.626Z,1.15
2018-09-21T17:38:29.037Z,1.30
2018-09-21T17:43:33.292Z,1.40
2018-09-21T17:48:37.206Z,1.30
2018-09-21T17:53:41.205Z,1.60
2018-09-21T17:58:44.937Z,1.67
2018-09-21T18:03:48.795Z,1.47
2018-09-21T18:08:53.003Z,1.30
2018-09-21T18:13:56.750Z,0.80
2018-09-21T18:19:01.004Z,1.20
2018-09-21T18:24:05.278Z,1.05
2018-09-21T18:29:09.224Z,1.15
2018-09-21T18:34:12.634Z,1.42
2018-09-21T18:39:15.968Z,1.72
2018-09-21T18:44:19.316Z,1.27
2018-09-21T18:49:22.686Z,1.07
2018-09-21T18:54:26.265Z,0.87
2018-09-21T18:59:29.633Z,1.43
2018-09-21T19:04:32.923Z,1.17
2018-09-21T19:09:36.276Z,1.20
2018-09-21T19:14:39.895Z,1.37
2018-09-21T19:19:43.178Z,1.43
2018-09-21T19:24:46.596Z,1.20
2018-09-21T19:29:49.986Z,1.63
2018-09-21T19:34:53.299Z,1.80
2018-09-21T19:39:56.607Z,1.73
2018-09-21T19:44:59.975Z,1.43
2018-09-21T19:50:04.084Z,1.67
2018-09-21T19:55:07.380Z,1.80
2018-09-21T20:00:10.698Z,1.50
2018-09-21T20:05:14.036Z,1.90
2018-09-21T20:10:17.343Z,1.82
2018-09-21T20:15:20.657Z,1.67
2018-09-21T20:20:23.996Z,2.00
2018-09-21T20:25:27.362Z,2.10
2018-09-21T20:30:36.054Z,1.67
2018-09-21T20:35:39.419Z,1.80
2018-09-21T20:40:42.666Z,1.93
2018-09-21T20:45:46.019Z,1.90
2018-09-21T20:50:49.359Z,2.00
2018-09-21T20:55:52.686Z,1.87
2018-09-21T21:00:55.977Z,1.80
2018-09-21T21:05:59.363Z,2.10
2018-09-21T21:11:02.675Z,1.90
2018-09-21T21:16:05.972Z,2.00
2018-09-21T21:21:09.267Z,2.10
2018-09-21T21:26:12.578Z,2.03
2018-09-21T21:31:15.887Z,2.07
2018-09-21T21:36:19.520Z,2.07
2018-09-21T21:41:22.831Z,1.87
2018-09-21T21:46:26.163Z,1.90
2018-09-21T21:51:29.522Z,2.23
2018-09-21T21:56:32.822Z,1.73
2018-09-21T22:01:41.446Z,2.13
2018-09-21T22:06:44.758Z,1.87
2018-09-21T22:11:53.474Z,2.20
2018-09-21T22:16:56.782Z,1.80
2018-09-21T22:22:00.107Z,1.60
2018-09-21T22:27:03.440Z,1.53
2018-09-21T22:32:06.963Z,1.50
2018-09-21T22:37:10.272Z,1.20
2018-09-21T22:42:13.670Z,1.70
2018-09-21T22:47:17.102Z,0.90
2018-09-21T22:52:20.386Z,1.00
2018-09-21T22:57:23.743Z,1.10
2018-09-21T23:02:27.051Z,1.00
2018-09-21T23:07:30.358Z,1.10
2018-09-21T23:12:33.704Z,1.00
2018-09-21T23:17:37.042Z,0.93
2018-09-21T23:22:40.356Z,1.13
2018-09-21T23:27:43.643Z,0.70
2018-09-21T23:32:47.031Z,0.90
2018-09-21T23:37:50.386Z,0.60
2018-09-21T23:42:53.670Z,0.90
2018-09-21T23:47:56.975Z,0.93
2018-09-21T23:53:00.320Z,0.60
2018-09-21T23:58:03.666Z,0.50
